Impacts METAR Board
IDs:

KBMQ - Burnet Muni, TX, US

Updated at: 2200 UTC 29 May 2020
Potential Impact None Slight Moderate High
Time 29/10Z 29/11Z 29/12Z 29/13Z 29/14Z 29/15Z 29/16Z 29/17Z 29/18Z 29/19Z 29/20Z 29/21Z 29/22Z
Temp67 66 67 69 71 74 77 79 80 82 84 85 84
Dewpt65 63 62 62 61 61 60 60 58 57 56 53 54
Altim30.10 30.12 30.14 30.15 30.17 30.18 30.17 30.19 30.17 30.17 30.17 30.17 30.15
VIS10 10 10 10 10 10 10 10 10 10 10 10 10
CIG-- -- -- -- -- -- -- -- -- -- -- -- --
CoverCLRCLRCLRCLRCLRCLRCLRCLRCLRCLRCLRCLRCLR
FltCatVFRVFRVFRVFRVFRVFRVFRVFRVFRVFRVFRVFRVFR
WX--------------------------
WDir0340350360202010206050604030
WSpd0 3 5 7 9 9 10 13 9 10 13 12 9
WGst-- -- -- -- -- 16 16 18 20 18 19 20 16
Raw hourly METARs
KBMQ 290953Z AUTO 00000KT 10SM CLR 19/18 A3010 RMK AO2 SLP177 T01940183 $
KBMQ 291053Z AUTO 34003KT 10SM CLR 19/17 A3012 RMK AO2 SLP185 T01890172 $
KBMQ 291153Z AUTO 35005KT 10SM CLR 19/17 A3014 RMK AO2 SLP194 T01940167 10206 20189 53014 $
KBMQ 291253Z AUTO 36007KT 10SM CLR 21/17 A3015 RMK AO2 SLP196 T02060167 $
KBMQ 291353Z AUTO 02009KT 10SM CLR 22/16 A3017 RMK AO2 SLP202 T02170161 $
KBMQ 291453Z AUTO 02009G16KT 10SM CLR 23/16 A3018 RMK AO2 SLP204 T02330161 51011 $
KBMQ 291553Z AUTO 01010G16KT 10SM CLR 25/16 A3017 RMK AO2 SLP201 T02500156 $
KBMQ 291653Z AUTO 02013G18KT 10SM CLR 26/16 A3019 RMK AO2 SLP206 T02610156 $
KBMQ 291753Z AUTO 06009G20KT 10SM CLR 27/14 A3017 RMK AO2 SLP201 T02670144 10272 20194 58002 $
KBMQ 291853Z AUTO 05010G18KT 10SM CLR 28/14 A3017 RMK AO2 SLP201 T02780139 $
KBMQ 291953Z AUTO 06013G19KT 10SM CLR 29/13 A3017 RMK AO2 SLP200 T02890133 $
KBMQ 292053Z AUTO 04012G20KT 10SM CLR 29/12 A3017 RMK AO2 SLP199 T02940117 58001 $
KBMQ 292153Z AUTO 03009G16KT 10SM CLR 29/12 A3015 RMK AO2 SLP191 T02890122 $